Terminal Aerodrome Forecast
Issued by NWS

Home | Current Version | Previous Version | Text Only | Print | Product List | Glossary On
Versions: 1 2 3 4 5 6 7 8 9 10 11 12 13 14 15
000
FTUS44 KEPZ 051125
TAFTCS
TAF
KTCS 051125Z 0512/0612 29007KT P6SM SCT250
     FM052000 20009KT P6SM SCT080 SCT150 BKN250
     FM060300 23007KT P6SM SCT250=

USA.gov is the U.S. government's official web portal to all federal, state and local government web resources and services.